Terminal Aerodrome Forecast
Issued by NWS

Home | Current Version | Previous Version | Text Only | Print | Product List | Glossary On
Versions: 1 2 3 4 5 6 7 8 9 10 11 12 13 14 15 16 17 18 19 20 21 22 23 24 25 26 27 28 29 30 31 32 33 34 35 36
000
FTUS45 KBOU 241300 AAA
TAFAPA
TAF AMD
KAPA 241300Z 2413/2512 33005KT P6SM SCT008 BKN012
     FM241600 01013G22KT P6SM VCSH SCT008 BKN015 OVC025
      TEMPO 2416/2419 1SM -SHSN
     FM241900 01012G20KT P6SM SCT018 BKN030 OVC060
     FM242300 02011KT P6SM VCSH SCT025 BKN045 OVC080
     FM250300 35009KT P6SM SCT020 BKN045
     FM250800 22007KT P6SM SCT040 BKN080=

USA.gov is the U.S. government's official web portal to all federal, state and local government web resources and services.